Berea, KY

9:47 PM EDT on July 29, 2014 (GMT -0400)
Bratcher Lane (KKYBEREA2) Elev 1001 ft | 37.56 °N, 84.28 °W | Change Station

Current weather conditions updated 1 minute ago

Clear
Clear
59.4 °F
Feels Like 59.4 °F
N
0.0
Wind Variable Wind from South

Tomorrow is forecast to be Much Warmer than today.

Today
High -- | Low -- °F
--% Chance of Precip.
Yesterday
High -- | Low -- °F
Precip. -- in
6:38 AM 8:48 PM
Waxing Crescent, 9% visible
Pressure 30.08 in
Visibility 10.0 miles
Clouds Clear
Dew Point 56 °F
Humidity 88%
Rainfall 0.00 in
Snow Depth Not available.
UV 0 out of 12
Pollen 4.80 out of 12
Air Quality Not available.
Flu Activity Not available.
METAR KI39 300135Z AUTO 00000KT 10SM CLR 18/12 A3008 RMK AO2

More Conditions Fewer Conditions

Pressure 30.08 in
Visibility 10.0 miles
Clouds Clear
Dew Point 56 °F
Humidity 88%
Rainfall 0.00 in
Snow Depth Not available.
UV 0 out of 12
Pollen 4.80 out of 12
Air Quality Not available.
Flu Activity Not available.
METAR KI39 300135Z AUTO 00000KT 10SM CLR 18/12 A3008 RMK AO2

More Conditions Fewer Conditions

10-Day Weather Forecast

Almanac

Astronomy

Jul. 29, 2014 Rise Set
Actual Time 6:38 AM EDT 8:48 PM EDT
Civil Twilight 6:09 AM EDT 9:17 PM EDT
Nautical Twilight 5:33 AM EDT 9:52 PM EDT
Astronomical Twilight 4:54 AM EDT 10:31 PM EDT
Moon 9:10 AM EDT (7/29) 10:04 PM EDT (7/29)
Length of Visible Light 15h 07m
Length of Day
14h 09m
Tomorrow will be 1m 45s shorter.
Waxing Crescent, 9% of the Moon is Illuminated
Today
Waxing Crescent
Aug 3
First Quarter
Aug 10
Full
Aug 17
Last Quarter
Aug 25
New

Today's Extremes

State Highs State Lows

Community

WunderPhotos

Upload Photos

1,738,947 photos uploaded!

Nearby

Snow Depth

Station Depth Elevation
No new snow has been reported.

Earthquake Activity

City Distance Mag. Time & Date
No recent earthquake activity has been reported nearby.
Minimum magnitude displayed is 2.5.

Coastal Water Temperatures

Place Temperature
No Stations Reporting

Nearby Weather Stations

Station Location Temp. Dew Point Humidity Wind Precip. Elev Updated Type
Bratcher Lane, Berea, KY 59.4 °F 56 °F 88% South  at  0.0 mph - / hr 1001 ft 9:45 PM EDT Normal
City Hall, Richmond, KY 67.3 °F 55 °F 64% NNE  at  1.0 mph 0.00 in / hr 974 ft 9:47 PM EDT Normal
PICNIC HILL, IRVINE, KY 60.5 °F 57 °F 88% WNW  at  0.0 mph - / hr 830 ft 9:44 PM EDT Normal
K. Bracketts Weather Station 39 N, Crab Orchard, KY 60.6 °F 60 °F 99% North  at  0.0 mph 0.00 in / hr 952 ft 9:47 PM EDT Rapid Fire
Irvine, KY 61.0 °F 56 °F 84% SE  at  0.0 mph 0.00 in / hr 719 ft 9:47 PM EDT Rapid Fire
SLOAN, Irvine, KY 58.3 °F 56 °F 92% East  at  0.0 mph - / hr 791 ft 9:41 PM EDT Normal
Southern McKee, McKee, KY 57.5 °F 52 °F 82% North  at  0.0 mph 0.00 in / hr 1138 ft 9:47 PM EDT Rapid Fire
Richmond Estates, Lexington, KY 59.0 °F 58 °F 95% NE  at  0.0 mph 0.00 in / hr 1030 ft 9:45 PM EDT Normal

Show More Stations Show Fewer Stations